Terminal Aerodrome Forecast
Issued by NWS

Home | Current Version | Previous Version | Graphics & Text | Print | Product List | Glossary On
Versions: 1 2 3 4 5 6 7 8 9 10 11 12 13 14 15 16 17 18
000
FTUS41 KCLE 211730
TAFFDY
TAF
KFDY 211730Z 2118/2218 24011KT P6SM SCT040 BKN250
     FM212200 24012KT P6SM VCTS BKN040CB OVC120
      TEMPO 2123/2201 VRB30G40KT 1SM -TSRA OVC020CB
     FM220100 23005KT P6SM SCT040 BKN080
      TEMPO 2209/2212 5SM BR
     FM221200 24012KT P6SM VCSH BKN040=

USA.gov is the U.S. government's official web portal to all federal, state and local government web resources and services.